sensor_id;sensor_type;location;lat;lon;timestamp;P1;durP1;ratioP1;P2;durP2;ratioP2
7142;SDS011;3613;48.902;9.204;2022-12-18T00:03:43;63.13;;;26.35;;
7142;SDS011;3613;48.902;9.204;2022-12-18T00:06:09;65.55;;;27.17;;
7142;SDS011;3613;48.902;9.204;2022-12-18T00:08:36;62.72;;;28.58;;
7142;SDS011;3613;48.902;9.204;2022-12-18T00:11:08;63.83;;;29.33;;
7142;SDS011;3613;48.902;9.204;2022-12-18T00:13:36;74.75;;;29.75;;
7142;SDS011;3613;48.902;9.204;2022-12-18T00:16:05;73.20;;;31.95;;
7142;SDS011;3613;48.902;9.204;2022-12-18T00:18:33;66.85;;;28.92;;
7142;SDS011;3613;48.902;9.204;2022-12-18T00:21:00;65.90;;;27.90;;
7142;SDS011;3613;48.902;9.204;2022-12-18T00:23:32;64.32;;;27.88;;
7142;SDS011;3613;48.902;9.204;2022-12-18T00:26:00;63.03;;;28.15;;
7142;SDS011;3613;48.902;9.204;2022-12-18T00:28:26;58.67;;;24.75;;
7142;SDS011;3613;48.902;9.204;2022-12-18T00:31:05;59.15;;;26.70;;
7142;SDS011;3613;48.902;9.204;2022-12-18T00:33:40;62.13;;;27.50;;
7142;SDS011;3613;48.902;9.204;2022-12-18T00:36:10;63.63;;;28.50;;
7142;SDS011;3613;48.902;9.204;2022-12-18T00:38:37;55.58;;;25.52;;
7142;SDS011;3613;48.902;9.204;2022-12-18T00:41:04;64.72;;;27.77;;
7142;SDS011;3613;48.902;9.204;2022-12-18T00:43:33;66.32;;;27.25;;
7142;SDS011;3613;48.902;9.204;2022-12-18T00:45:59;60.35;;;26.63;;
7142;SDS011;3613;48.902;9.204;2022-12-18T00:48:27;68.07;;;26.80;;
7142;SDS011;3613;48.902;9.204;2022-12-18T00:50:56;67.50;;;28.00;;
7142;SDS011;3613;48.902;9.204;2022-12-18T00:53:21;61.67;;;27.10;;
7142;SDS011;3613;48.902;9.204;2022-12-18T00:55:49;66.23;;;27.70;;
7142;SDS011;3613;48.902;9.204;2022-12-18T00:58:17;65.78;;;27.10;;
7142;SDS011;3613;48.902;9.204;2022-12-18T01:00:43;63.73;;;27.80;;
7142;SDS011;3613;48.902;9.204;2022-12-18T01:03:13;66.25;;;28.02;;
7142;SDS011;3613;48.902;9.204;2022-12-18T01:05:42;58.20;;;24.98;;
7142;SDS011;3613;48.902;9.204;2022-12-18T01:08:08;58.40;;;27.13;;
7142;SDS011;3613;48.902;9.204;2022-12-18T01:10:33;60.73;;;27.23;;
7142;SDS011;3613;48.902;9.204;2022-12-18T01:12:59;68.57;;;30.03;;
7142;SDS011;3613;48.902;9.204;2022-12-18T01:15:25;70.17;;;27.23;;
7142;SDS011;3613;48.902;9.204;2022-12-18T01:17:52;58.83;;;27.67;;
7142;SDS011;3613;48.902;9.204;2022-12-18T01:20:19;65.15;;;27.13;;
7142;SDS011;3613;48.902;9.204;2022-12-18T01:22:47;73.63;;;28.93;;
7142;SDS011;3613;48.902;9.204;2022-12-18T01:25:13;63.22;;;29.42;;
7142;SDS011;3613;48.902;9.204;2022-12-18T01:27:38;58.37;;;25.93;;
7142;SDS011;3613;48.902;9.204;2022-12-18T01:30:04;62.47;;;26.20;;
7142;SDS011;3613;48.902;9.204;2022-12-18T01:32:31;65.10;;;27.20;;
7142;SDS011;3613;48.902;9.204;2022-12-18T01:34:57;52.00;;;25.10;;
7142;SDS011;3613;48.902;9.204;2022-12-18T01:37:25;61.43;;;27.27;;
7142;SDS011;3613;48.902;9.204;2022-12-18T01:39:51;72.82;;;29.98;;
7142;SDS011;3613;48.902;9.204;2022-12-18T01:42:19;65.57;;;27.90;;
7142;SDS011;3613;48.902;9.204;2022-12-18T01:49:51;70.07;;;27.85;;
7142;SDS011;3613;48.902;9.204;2022-12-18T01:52:17;57.33;;;28.23;;
7142;SDS011;3613;48.902;9.204;2022-12-18T01:54:45;71.95;;;26.08;;
7142;SDS011;3613;48.902;9.204;2022-12-18T01:57:12;62.90;;;28.45;;
7142;SDS011;3613;48.902;9.204;2022-12-18T01:59:40;63.05;;;28.08;;
7142;SDS011;3613;48.902;9.204;2022-12-18T02:02:10;65.25;;;28.88;;
7142;SDS011;3613;48.902;9.204;2022-12-18T02:04:36;60.85;;;25.73;;
7142;SDS011;3613;48.902;9.204;2022-12-18T02:12:35;53.33;;;25.25;;
7142;SDS011;3613;48.902;9.204;2022-12-18T02:15:21;62.88;;;26.70;;
7142;SDS011;3613;48.902;9.204;2022-12-18T02:18:12;62.17;;;27.10;;
7142;SDS011;3613;48.902;9.204;2022-12-18T02:20:47;60.13;;;27.33;;
7142;SDS011;3613;48.902;9.204;2022-12-18T02:23:33;62.42;;;28.23;;
7142;SDS011;3613;48.902;9.204;2022-12-18T02:26:03;75.38;;;29.33;;
7142;SDS011;3613;48.902;9.204;2022-12-18T02:28:34;65.20;;;30.42;;
7142;SDS011;3613;48.902;9.204;2022-12-18T02:31:07;60.83;;;26.58;;
7142;SDS011;3613;48.902;9.204;2022-12-18T02:33:36;62.65;;;28.20;;
7142;SDS011;3613;48.902;9.204;2022-12-18T02:36:05;62.35;;;26.95;;
7142;SDS011;3613;48.902;9.204;2022-12-18T02:38:32;68.70;;;26.55;;
7142;SDS011;3613;48.902;9.204;2022-12-18T02:40:59;62.25;;;25.42;;
7142;SDS011;3613;48.902;9.204;2022-12-18T02:43:27;62.33;;;28.90;;
7142;SDS011;3613;48.902;9.204;2022-12-18T02:45:56;68.38;;;28.00;;
7142;SDS011;3613;48.902;9.204;2022-12-18T02:48:31;77.60;;;26.90;;
7142;SDS011;3613;48.902;9.204;2022-12-18T02:51:08;56.65;;;24.20;;
7142;SDS011;3613;48.902;9.204;2022-12-18T02:56:07;68.32;;;27.05;;
7142;SDS011;3613;48.902;9.204;2022-12-18T02:58:57;51.45;;;25.33;;
7142;SDS011;3613;48.902;9.204;2022-12-18T03:01:40;67.18;;;25.10;;
7142;SDS011;3613;48.902;9.204;2022-12-18T03:04:18;60.47;;;25.20;;
7142;SDS011;3613;48.902;9.204;2022-12-18T03:06:53;55.67;;;24.90;;
7142;SDS011;3613;48.902;9.204;2022-12-18T03:09:27;58.28;;;24.98;;
7142;SDS011;3613;48.902;9.204;2022-12-18T03:12:03;57.22;;;24.65;;
7142;SDS011;3613;48.902;9.204;2022-12-18T03:14:47;57.30;;;25.33;;
7142;SDS011;3613;48.902;9.204;2022-12-18T03:17:20;59.45;;;24.50;;
7142;SDS011;3613;48.902;9.204;2022-12-18T03:19:50;54.90;;;23.73;;
7142;SDS011;3613;48.902;9.204;2022-12-18T03:22:19;60.22;;;24.25;;
7142;SDS011;3613;48.902;9.204;2022-12-18T03:24:51;58.03;;;23.25;;
7142;SDS011;3613;48.902;9.204;2022-12-18T03:27:19;51.00;;;24.25;;
7142;SDS011;3613;48.902;9.204;2022-12-18T03:29:53;57.13;;;23.48;;
7142;SDS011;3613;48.902;9.204;2022-12-18T03:32:33;54.67;;;25.00;;
7142;SDS011;3613;48.902;9.204;2022-12-18T03:35:03;55.20;;;25.02;;
7142;SDS011;3613;48.902;9.204;2022-12-18T03:37:30;54.25;;;24.75;;
7142;SDS011;3613;48.902;9.204;2022-12-18T03:39:56;52.83;;;24.05;;
7142;SDS011;3613;48.902;9.204;2022-12-18T03:42:29;62.30;;;24.73;;
7142;SDS011;3613;48.902;9.204;2022-12-18T03:45:19;54.20;;;23.70;;
7142;SDS011;3613;48.902;9.204;2022-12-18T03:47:58;58.90;;;23.98;;
7142;SDS011;3613;48.902;9.204;2022-12-18T03:55:47;53.13;;;23.20;;
7142;SDS011;3613;48.902;9.204;2022-12-18T03:58:17;57.90;;;23.70;;
7142;SDS011;3613;48.902;9.204;2022-12-18T04:00:48;54.80;;;24.15;;
7142;SDS011;3613;48.902;9.204;2022-12-18T04:03:17;49.55;;;20.90;;
7142;SDS011;3613;48.902;9.204;2022-12-18T04:05:45;44.55;;;22.30;;
7142;SDS011;3613;48.902;9.204;2022-12-18T04:08:12;49.45;;;21.52;;
7142;SDS011;3613;48.902;9.204;2022-12-18T04:10:38;49.30;;;22.15;;
7142;SDS011;3613;48.902;9.204;2022-12-18T04:13:05;50.95;;;21.58;;
7142;SDS011;3613;48.902;9.204;2022-12-18T04:15:31;53.65;;;21.80;;
7142;SDS011;3613;48.902;9.204;2022-12-18T04:18:02;48.38;;;22.35;;
7142;SDS011;3613;48.902;9.204;2022-12-18T04:20:27;51.95;;;22.50;;
7142;SDS011;3613;48.902;9.204;2022-12-18T04:22:55;60.23;;;22.87;;
7142;SDS011;3613;48.902;9.204;2022-12-18T04:25:21;53.47;;;22.38;;
7142;SDS011;3613;48.902;9.204;2022-12-18T04:27:47;52.03;;;21.97;;
7142;SDS011;3613;48.902;9.204;2022-12-18T04:30:12;51.07;;;22.23;;
7142;SDS011;3613;48.902;9.204;2022-12-18T04:32:38;54.30;;;23.63;;
7142;SDS011;3613;48.902;9.204;2022-12-18T04:35:04;50.00;;;22.60;;
7142;SDS011;3613;48.902;9.204;2022-12-18T04:37:33;41.72;;;20.02;;
7142;SDS011;3613;48.902;9.204;2022-12-18T04:39:59;53.10;;;23.42;;
7142;SDS011;3613;48.902;9.204;2022-12-18T04:42:27;55.28;;;22.33;;
7142;SDS011;3613;48.902;9.204;2022-12-18T04:44:55;41.70;;;21.70;;
7142;SDS011;3613;48.902;9.204;2022-12-18T04:47:23;52.00;;;22.77;;
7142;SDS011;3613;48.902;9.204;2022-12-18T04:49:51;49.60;;;22.23;;
7142;SDS011;3613;48.902;9.204;2022-12-18T04:52:21;48.97;;;21.83;;
7142;SDS011;3613;48.902;9.204;2022-12-18T04:54:47;52.45;;;21.95;;
7142;SDS011;3613;48.902;9.204;2022-12-18T04:57:13;47.13;;;21.07;;
7142;SDS011;3613;48.902;9.204;2022-12-18T04:59:39;39.63;;;21.47;;
7142;SDS011;3613;48.902;9.204;2022-12-18T05:02:07;50.58;;;21.38;;
7142;SDS011;3613;48.902;9.204;2022-12-18T05:04:35;47.63;;;22.45;;
7142;SDS011;3613;48.902;9.204;2022-12-18T05:07:03;42.17;;;20.23;;
7142;SDS011;3613;48.902;9.204;2022-12-18T05:09:29;45.60;;;19.60;;
7142;SDS011;3613;48.902;9.204;2022-12-18T05:11:57;50.85;;;21.60;;
7142;SDS011;3613;48.902;9.204;2022-12-18T05:14:23;46.03;;;20.23;;
7142;SDS011;3613;48.902;9.204;2022-12-18T05:16:52;46.00;;;20.90;;
7142;SDS011;3613;48.902;9.204;2022-12-18T05:19:20;52.50;;;21.67;;
7142;SDS011;3613;48.902;9.204;2022-12-18T05:21:49;44.78;;;20.75;;
7142;SDS011;3613;48.902;9.204;2022-12-18T05:24:14;58.10;;;20.95;;
7142;SDS011;3613;48.902;9.204;2022-12-18T05:26:40;42.73;;;20.80;;
7142;SDS011;3613;48.902;9.204;2022-12-18T05:29:06;41.05;;;20.55;;
7142;SDS011;3613;48.902;9.204;2022-12-18T05:31:31;44.67;;;18.83;;
7142;SDS011;3613;48.902;9.204;2022-12-18T05:33:57;47.30;;;20.15;;
7142;SDS011;3613;48.902;9.204;2022-12-18T05:36:23;43.27;;;19.10;;
7142;SDS011;3613;48.902;9.204;2022-12-18T05:38:49;37.83;;;18.20;;
7142;SDS011;3613;48.902;9.204;2022-12-18T05:41:15;39.58;;;18.83;;
7142;SDS011;3613;48.902;9.204;2022-12-18T05:43:40;44.93;;;19.23;;
7142;SDS011;3613;48.902;9.204;2022-12-18T05:46:08;51.17;;;19.58;;
7142;SDS011;3613;48.902;9.204;2022-12-18T05:48:36;45.78;;;18.85;;
7142;SDS011;3613;48.902;9.204;2022-12-18T05:51:08;44.27;;;19.67;;
7142;SDS011;3613;48.902;9.204;2022-12-18T05:53:39;47.22;;;20.55;;
7142;SDS011;3613;48.902;9.204;2022-12-18T05:56:06;42.17;;;19.30;;
7142;SDS011;3613;48.902;9.204;2022-12-18T05:58:33;42.05;;;18.95;;
7142;SDS011;3613;48.902;9.204;2022-12-18T06:01:11;48.65;;;19.75;;
7142;SDS011;3613;48.902;9.204;2022-12-18T06:03:44;39.33;;;18.55;;
7142;SDS011;3613;48.902;9.204;2022-12-18T06:06:17;38.65;;;18.65;;
7142;SDS011;3613;48.902;9.204;2022-12-18T06:08:47;48.25;;;18.50;;
7142;SDS011;3613;48.902;9.204;2022-12-18T06:11:19;49.83;;;20.73;;
7142;SDS011;3613;48.902;9.204;2022-12-18T06:13:46;46.38;;;19.02;;
7142;SDS011;3613;48.902;9.204;2022-12-18T06:16:12;41.17;;;18.05;;
7142;SDS011;3613;48.902;9.204;2022-12-18T06:18:40;40.83;;;18.08;;
7142;SDS011;3613;48.902;9.204;2022-12-18T06:21:08;40.47;;;17.83;;
7142;SDS011;3613;48.902;9.204;2022-12-18T06:23:34;44.63;;;19.10;;
7142;SDS011;3613;48.902;9.204;2022-12-18T06:26:07;50.70;;;20.08;;
7142;SDS011;3613;48.902;9.204;2022-12-18T06:28:36;39.28;;;18.05;;
7142;SDS011;3613;48.902;9.204;2022-12-18T06:31:04;39.50;;;18.83;;
7142;SDS011;3613;48.902;9.204;2022-12-18T06:33:30;45.78;;;19.02;;
7142;SDS011;3613;48.902;9.204;2022-12-18T06:36:03;42.92;;;17.25;;
7142;SDS011;3613;48.902;9.204;2022-12-18T06:38:31;44.35;;;18.23;;
7142;SDS011;3613;48.902;9.204;2022-12-18T06:41:00;42.35;;;17.73;;
7142;SDS011;3613;48.902;9.204;2022-12-18T06:43:32;40.63;;;18.15;;
7142;SDS011;3613;48.902;9.204;2022-12-18T06:46:01;37.73;;;18.33;;
7142;SDS011;3613;48.902;9.204;2022-12-18T06:48:28;50.33;;;19.95;;
7142;SDS011;3613;48.902;9.204;2022-12-18T06:50:54;44.35;;;18.17;;
7142;SDS011;3613;48.902;9.204;2022-12-18T06:53:21;39.10;;;17.25;;
7142;SDS011;3613;48.902;9.204;2022-12-18T06:55:47;40.53;;;19.30;;
7142;SDS011;3613;48.902;9.204;2022-12-18T06:58:13;33.97;;;16.95;;
7142;SDS011;3613;48.902;9.204;2022-12-18T07:00:41;41.70;;;18.05;;
7142;SDS011;3613;48.902;9.204;2022-12-18T07:03:07;37.58;;;18.58;;
7142;SDS011;3613;48.902;9.204;2022-12-18T07:05:39;42.35;;;19.45;;
7142;SDS011;3613;48.902;9.204;2022-12-18T07:08:05;38.72;;;17.38;;
7142;SDS011;3613;48.902;9.204;2022-12-18T07:10:31;37.40;;;17.48;;
7142;SDS011;3613;48.902;9.204;2022-12-18T07:12:56;40.97;;;19.47;;
7142;SDS011;3613;48.902;9.204;2022-12-18T07:15:22;38.63;;;17.63;;
7142;SDS011;3613;48.902;9.204;2022-12-18T07:17:50;38.03;;;18.13;;
7142;SDS011;3613;48.902;9.204;2022-12-18T07:20:16;42.30;;;17.42;;
7142;SDS011;3613;48.902;9.204;2022-12-18T07:22:42;42.63;;;16.95;;
7142;SDS011;3613;48.902;9.204;2022-12-18T07:25:07;38.90;;;15.60;;
7142;SDS011;3613;48.902;9.204;2022-12-18T07:27:36;41.03;;;18.38;;
7142;SDS011;3613;48.902;9.204;2022-12-18T07:30:05;37.05;;;16.63;;
7142;SDS011;3613;48.902;9.204;2022-12-18T07:32:31;41.13;;;18.08;;
7142;SDS011;3613;48.902;9.204;2022-12-18T07:34:59;38.17;;;17.23;;
7142;SDS011;3613;48.902;9.204;2022-12-18T07:37:27;44.15;;;18.65;;
7142;SDS011;3613;48.902;9.204;2022-12-18T07:39:53;39.50;;;17.98;;
7142;SDS011;3613;48.902;9.204;2022-12-18T07:42:24;41.20;;;18.77;;
7142;SDS011;3613;48.902;9.204;2022-12-18T07:44:57;44.38;;;17.60;;
7142;SDS011;3613;48.902;9.204;2022-12-18T07:47:26;34.60;;;17.45;;
7142;SDS011;3613;48.902;9.204;2022-12-18T07:49:53;43.83;;;20.58;;
7142;SDS011;3613;48.902;9.204;2022-12-18T07:52:20;42.88;;;18.75;;
7142;SDS011;3613;48.902;9.204;2022-12-18T07:54:46;46.50;;;18.73;;
7142;SDS011;3613;48.902;9.204;2022-12-18T07:57:14;48.08;;;17.38;;
7142;SDS011;3613;48.902;9.204;2022-12-18T07:59:41;50.17;;;21.02;;
7142;SDS011;3613;48.902;9.204;2022-12-18T08:02:09;43.42;;;20.42;;
7142;SDS011;3613;48.902;9.204;2022-12-18T08:04:35;46.13;;;20.83;;
7142;SDS011;3613;48.902;9.204;2022-12-18T08:07:03;49.33;;;20.70;;
7142;SDS011;3613;48.902;9.204;2022-12-18T08:09:28;47.97;;;20.27;;
7142;SDS011;3613;48.902;9.204;2022-12-18T08:11:54;45.70;;;20.80;;
7142;SDS011;3613;48.902;9.204;2022-12-18T08:14:19;45.30;;;20.90;;
7142;SDS011;3613;48.902;9.204;2022-12-18T08:16:45;43.00;;;20.97;;
7142;SDS011;3613;48.902;9.204;2022-12-18T08:19:13;49.38;;;22.17;;
7142;SDS011;3613;48.902;9.204;2022-12-18T08:21:39;49.80;;;19.63;;
7142;SDS011;3613;48.902;9.204;2022-12-18T08:24:08;40.53;;;19.65;;
7142;SDS011;3613;48.902;9.204;2022-12-18T08:26:34;51.33;;;20.75;;
7142;SDS011;3613;48.902;9.204;2022-12-18T08:29:02;49.33;;;21.77;;
7142;SDS011;3613;48.902;9.204;2022-12-18T08:31:28;41.43;;;18.87;;
7142;SDS011;3613;48.902;9.204;2022-12-18T08:33:55;53.35;;;20.48;;
7142;SDS011;3613;48.902;9.204;2022-12-18T08:36:22;47.45;;;19.50;;
7142;SDS011;3613;48.902;9.204;2022-12-18T08:38:50;48.58;;;21.45;;
7142;SDS011;3613;48.902;9.204;2022-12-18T08:41:16;43.50;;;19.38;;
7142;SDS011;3613;48.902;9.204;2022-12-18T08:43:43;43.97;;;19.65;;
7142;SDS011;3613;48.902;9.204;2022-12-18T08:46:30;48.15;;;20.55;;
7142;SDS011;3613;48.902;9.204;2022-12-18T08:49:00;42.50;;;21.30;;
7142;SDS011;3613;48.902;9.204;2022-12-18T08:51:25;47.27;;;20.57;;
7142;SDS011;3613;48.902;9.204;2022-12-18T08:53:51;46.73;;;21.13;;
7142;SDS011;3613;48.902;9.204;2022-12-18T08:56:16;41.93;;;19.87;;
7142;SDS011;3613;48.902;9.204;2022-12-18T08:58:42;47.17;;;20.47;;
7142;SDS011;3613;48.902;9.204;2022-12-18T09:01:09;42.43;;;20.00;;
7142;SDS011;3613;48.902;9.204;2022-12-18T09:03:35;51.97;;;22.42;;
7142;SDS011;3613;48.902;9.204;2022-12-18T09:06:04;43.72;;;20.10;;
7142;SDS011;3613;48.902;9.204;2022-12-18T09:08:30;47.30;;;19.92;;
7142;SDS011;3613;48.902;9.204;2022-12-18T09:11:01;49.72;;;20.42;;
7142;SDS011;3613;48.902;9.204;2022-12-18T09:13:27;40.47;;;18.87;;
7142;SDS011;3613;48.902;9.204;2022-12-18T09:15:53;48.25;;;21.45;;
7142;SDS011;3613;48.902;9.204;2022-12-18T09:18:23;47.55;;;20.73;;
7142;SDS011;3613;48.902;9.204;2022-12-18T09:20:49;44.38;;;20.35;;
7142;SDS011;3613;48.902;9.204;2022-12-18T09:23:18;49.75;;;22.77;;
7142;SDS011;3613;48.902;9.204;2022-12-18T09:25:46;46.75;;;23.25;;
7142;SDS011;3613;48.902;9.204;2022-12-18T09:28:15;51.85;;;23.38;;
7142;SDS011;3613;48.902;9.204;2022-12-18T09:30:46;59.78;;;25.45;;
7142;SDS011;3613;48.902;9.204;2022-12-18T09:33:12;58.83;;;26.40;;
7142;SDS011;3613;48.902;9.204;2022-12-18T09:35:42;66.32;;;28.48;;
7142;SDS011;3613;48.902;9.204;2022-12-18T09:38:11;55.17;;;25.30;;
7142;SDS011;3613;48.902;9.204;2022-12-18T09:40:45;55.95;;;26.48;;
7142;SDS011;3613;48.902;9.204;2022-12-18T09:43:16;49.42;;;23.92;;
7142;SDS011;3613;48.902;9.204;2022-12-18T09:45:50;54.13;;;25.42;;
7142;SDS011;3613;48.902;9.204;2022-12-18T09:48:23;54.30;;;24.13;;
7142;SDS011;3613;48.902;9.204;2022-12-18T09:50:53;50.00;;;23.73;;
7142;SDS011;3613;48.902;9.204;2022-12-18T09:53:25;41.78;;;20.23;;
7142;SDS011;3613;48.902;9.204;2022-12-18T09:55:55;47.65;;;23.27;;
7142;SDS011;3613;48.902;9.204;2022-12-18T09:58:30;45.58;;;20.85;;
7142;SDS011;3613;48.902;9.204;2022-12-18T10:01:00;47.20;;;21.13;;
7142;SDS011;3613;48.902;9.204;2022-12-18T10:03:26;50.87;;;22.57;;
7142;SDS011;3613;48.902;9.204;2022-12-18T10:20:13;39.90;;;21.88;;
7142;SDS011;3613;48.902;9.204;2022-12-18T10:28:13;46.85;;;21.42;;
7142;SDS011;3613;48.902;9.204;2022-12-18T10:30:40;42.40;;;22.60;;
7142;SDS011;3613;48.902;9.204;2022-12-18T10:33:16;47.65;;;23.58;;
7142;SDS011;3613;48.902;9.204;2022-12-18T10:35:45;57.35;;;25.52;;
7142;SDS011;3613;48.902;9.204;2022-12-18T10:46:42;48.67;;;22.42;;
7142;SDS011;3613;48.902;9.204;2022-12-18T10:49:21;45.90;;;21.77;;
7142;SDS011;3613;48.902;9.204;2022-12-18T10:51:51;50.67;;;23.20;;
7142;SDS011;3613;48.902;9.204;2022-12-18T10:54:57;44.30;;;22.63;;
7142;SDS011;3613;48.902;9.204;2022-12-18T11:00:22;41.90;;;21.27;;
7142;SDS011;3613;48.902;9.204;2022-12-18T11:02:53;46.10;;;21.40;;
7142;SDS011;3613;48.902;9.204;2022-12-18T11:07:57;43.03;;;21.27;;
7142;SDS011;3613;48.902;9.204;2022-12-18T11:10:35;44.38;;;22.00;;
7142;SDS011;3613;48.902;9.204;2022-12-18T11:13:15;45.17;;;20.35;;
7142;SDS011;3613;48.902;9.204;2022-12-18T11:15:43;49.85;;;23.98;;
7142;SDS011;3613;48.902;9.204;2022-12-18T11:18:20;45.63;;;20.23;;
7142;SDS011;3613;48.902;9.204;2022-12-18T11:20:58;51.30;;;21.92;;
7142;SDS011;3613;48.902;9.204;2022-12-18T11:23:30;41.80;;;20.48;;
7142;SDS011;3613;48.902;9.204;2022-12-18T11:26:00;39.87;;;20.17;;
7142;SDS011;3613;48.902;9.204;2022-12-18T11:31:14;46.85;;;20.98;;
7142;SDS011;3613;48.902;9.204;2022-12-18T11:33:52;44.00;;;21.42;;
7142;SDS011;3613;48.902;9.204;2022-12-18T11:36:36;44.65;;;21.95;;
7142;SDS011;3613;48.902;9.204;2022-12-18T11:39:27;43.63;;;19.73;;
7142;SDS011;3613;48.902;9.204;2022-12-18T11:42:27;43.80;;;20.85;;
7142;SDS011;3613;48.902;9.204;2022-12-18T11:45:02;40.30;;;21.43;;
7142;SDS011;3613;48.902;9.204;2022-12-18T11:50:30;46.43;;;23.40;;
7142;SDS011;3613;48.902;9.204;2022-12-18T11:53:11;48.93;;;24.10;;
7142;SDS011;3613;48.902;9.204;2022-12-18T12:09:14;46.28;;;23.55;;
7142;SDS011;3613;48.902;9.204;2022-12-18T12:39:01;41.85;;;19.08;;
7142;SDS011;3613;48.902;9.204;2022-12-18T12:41:31;44.20;;;21.10;;
7142;SDS011;3613;48.902;9.204;2022-12-18T12:44:27;40.90;;;20.63;;
7142;SDS011;3613;48.902;9.204;2022-12-18T12:46:56;45.00;;;22.90;;
7142;SDS011;3613;48.902;9.204;2022-12-18T12:49:25;40.40;;;21.33;;
7142;SDS011;3613;48.902;9.204;2022-12-18T12:51:58;42.65;;;21.48;;
7142;SDS011;3613;48.902;9.204;2022-12-18T12:54:45;46.03;;;21.60;;
7142;SDS011;3613;48.902;9.204;2022-12-18T12:57:17;40.67;;;20.55;;
7142;SDS011;3613;48.902;9.204;2022-12-18T13:05:02;44.30;;;21.98;;
7142;SDS011;3613;48.902;9.204;2022-12-18T13:13:17;37.70;;;19.27;;
7142;SDS011;3613;48.902;9.204;2022-12-18T13:18:14;40.70;;;20.70;;
7142;SDS011;3613;48.902;9.204;2022-12-18T13:25:53;43.17;;;19.88;;
7142;SDS011;3613;48.902;9.204;2022-12-18T13:31:06;40.78;;;21.20;;
7142;SDS011;3613;48.902;9.204;2022-12-18T13:33:38;42.30;;;18.97;;
7142;SDS011;3613;48.902;9.204;2022-12-18T13:36:12;44.95;;;20.25;;
7142;SDS011;3613;48.902;9.204;2022-12-18T13:39:15;44.20;;;20.20;;
7142;SDS011;3613;48.902;9.204;2022-12-18T13:47:05;41.47;;;21.15;;
7142;SDS011;3613;48.902;9.204;2022-12-18T13:49:51;40.75;;;19.58;;
7142;SDS011;3613;48.902;9.204;2022-12-18T13:52:19;40.47;;;18.50;;
7142;SDS011;3613;48.902;9.204;2022-12-18T13:54:53;42.60;;;19.98;;
7142;SDS011;3613;48.902;9.204;2022-12-18T13:59:52;39.80;;;19.85;;
7142;SDS011;3613;48.902;9.204;2022-12-18T14:02:20;42.67;;;21.47;;
7142;SDS011;3613;48.902;9.204;2022-12-18T14:04:48;33.85;;;18.27;;
7142;SDS011;3613;48.902;9.204;2022-12-18T14:07:18;42.55;;;20.35;;
7142;SDS011;3613;48.902;9.204;2022-12-18T14:09:50;41.13;;;22.42;;
7142;SDS011;3613;48.902;9.204;2022-12-18T14:12:27;47.63;;;21.58;;
7142;SDS011;3613;48.902;9.204;2022-12-18T14:17:58;40.88;;;20.83;;
7142;SDS011;3613;48.902;9.204;2022-12-18T14:20:28;46.65;;;20.75;;
7142;SDS011;3613;48.902;9.204;2022-12-18T14:22:58;43.08;;;21.02;;
7142;SDS011;3613;48.902;9.204;2022-12-18T14:25:26;46.22;;;19.92;;
7142;SDS011;3613;48.902;9.204;2022-12-18T14:30:36;39.85;;;22.38;;
7142;SDS011;3613;48.902;9.204;2022-12-18T14:33:12;40.88;;;20.73;;
7142;SDS011;3613;48.902;9.204;2022-12-18T14:35:40;40.83;;;19.98;;
7142;SDS011;3613;48.902;9.204;2022-12-18T14:40:59;45.25;;;21.75;;
7142;SDS011;3613;48.902;9.204;2022-12-18T14:43:28;44.95;;;21.73;;
7142;SDS011;3613;48.902;9.204;2022-12-18T14:45:56;47.20;;;21.48;;
7142;SDS011;3613;48.902;9.204;2022-12-18T14:48:41;41.92;;;20.23;;
7142;SDS011;3613;48.902;9.204;2022-12-18T14:51:17;43.47;;;21.70;;
7142;SDS011;3613;48.902;9.204;2022-12-18T14:59:03;41.15;;;19.50;;
7142;SDS011;3613;48.902;9.204;2022-12-18T15:01:37;46.58;;;22.38;;
7142;SDS011;3613;48.902;9.204;2022-12-18T15:07:02;46.42;;;22.65;;
7142;SDS011;3613;48.902;9.204;2022-12-18T15:09:28;45.63;;;21.50;;
7142;SDS011;3613;48.902;9.204;2022-12-18T15:11:57;51.73;;;21.77;;
7142;SDS011;3613;48.902;9.204;2022-12-18T15:14:35;47.05;;;24.02;;
7142;SDS011;3613;48.902;9.204;2022-12-18T15:17:06;47.05;;;22.88;;
7142;SDS011;3613;48.902;9.204;2022-12-18T15:19:47;52.22;;;22.90;;
7142;SDS011;3613;48.902;9.204;2022-12-18T15:22:25;58.83;;;23.73;;
7142;SDS011;3613;48.902;9.204;2022-12-18T15:24:58;58.60;;;22.92;;
7142;SDS011;3613;48.902;9.204;2022-12-18T15:32:32;46.13;;;22.77;;
7142;SDS011;3613;48.902;9.204;2022-12-18T15:35:12;48.72;;;22.75;;
7142;SDS011;3613;48.902;9.204;2022-12-18T15:37:38;48.72;;;24.05;;
7142;SDS011;3613;48.902;9.204;2022-12-18T15:40:07;53.80;;;23.17;;
7142;SDS011;3613;48.902;9.204;2022-12-18T15:42:36;52.28;;;24.65;;
7142;SDS011;3613;48.902;9.204;2022-12-18T15:45:23;53.75;;;22.77;;
7142;SDS011;3613;48.902;9.204;2022-12-18T15:47:49;49.22;;;23.45;;
7142;SDS011;3613;48.902;9.204;2022-12-18T15:50:14;49.23;;;23.10;;
7142;SDS011;3613;48.902;9.204;2022-12-18T15:52:45;47.40;;;22.02;;
7142;SDS011;3613;48.902;9.204;2022-12-18T15:55:15;49.28;;;22.23;;
7142;SDS011;3613;48.902;9.204;2022-12-18T15:58:01;46.17;;;21.85;;
7142;SDS011;3613;48.902;9.204;2022-12-18T16:00:28;46.03;;;20.67;;
7142;SDS011;3613;48.902;9.204;2022-12-18T16:02:54;46.60;;;21.37;;
7142;SDS011;3613;48.902;9.204;2022-12-18T16:05:19;44.53;;;21.60;;
7142;SDS011;3613;48.902;9.204;2022-12-18T16:07:50;47.17;;;20.98;;
7142;SDS011;3613;48.902;9.204;2022-12-18T16:10:15;45.60;;;20.50;;
7142;SDS011;3613;48.902;9.204;2022-12-18T16:12:41;49.50;;;21.67;;
7142;SDS011;3613;48.902;9.204;2022-12-18T16:15:09;41.63;;;21.30;;
7142;SDS011;3613;48.902;9.204;2022-12-18T16:17:40;49.83;;;20.13;;
7142;SDS011;3613;48.902;9.204;2022-12-18T16:20:11;48.50;;;23.02;;
7142;SDS011;3613;48.902;9.204;2022-12-18T16:22:42;45.15;;;20.73;;
7142;SDS011;3613;48.902;9.204;2022-12-18T16:25:21;45.38;;;20.48;;
7142;SDS011;3613;48.902;9.204;2022-12-18T16:27:48;48.20;;;19.48;;
7142;SDS011;3613;48.902;9.204;2022-12-18T16:30:19;47.40;;;20.55;;
7142;SDS011;3613;48.902;9.204;2022-12-18T16:32:46;46.20;;;21.83;;
7142;SDS011;3613;48.902;9.204;2022-12-18T16:35:13;48.27;;;21.10;;
7142;SDS011;3613;48.902;9.204;2022-12-18T16:37:40;43.72;;;19.73;;
7142;SDS011;3613;48.902;9.204;2022-12-18T16:40:09;51.35;;;22.00;;
7142;SDS011;3613;48.902;9.204;2022-12-18T16:42:39;41.33;;;20.00;;
7142;SDS011;3613;48.902;9.204;2022-12-18T16:45:06;42.28;;;20.23;;
7142;SDS011;3613;48.902;9.204;2022-12-18T16:47:34;42.83;;;19.42;;
7142;SDS011;3613;48.902;9.204;2022-12-18T16:50:00;40.20;;;18.83;;
7142;SDS011;3613;48.902;9.204;2022-12-18T16:52:25;44.83;;;19.67;;
7142;SDS011;3613;48.902;9.204;2022-12-18T16:54:51;42.85;;;18.63;;
7142;SDS011;3613;48.902;9.204;2022-12-18T16:57:22;45.42;;;19.98;;
7142;SDS011;3613;48.902;9.204;2022-12-18T16:59:50;41.00;;;19.20;;
7142;SDS011;3613;48.902;9.204;2022-12-18T17:02:19;38.10;;;18.15;;
7142;SDS011;3613;48.902;9.204;2022-12-18T17:04:47;38.75;;;18.33;;
7142;SDS011;3613;48.902;9.204;2022-12-18T17:07:13;47.20;;;20.87;;
7142;SDS011;3613;48.902;9.204;2022-12-18T17:09:41;42.47;;;19.02;;
7142;SDS011;3613;48.902;9.204;2022-12-18T17:12:07;45.17;;;20.47;;
7142;SDS011;3613;48.902;9.204;2022-12-18T17:14:34;50.10;;;21.63;;
7142;SDS011;3613;48.902;9.204;2022-12-18T17:17:03;41.55;;;19.88;;
7142;SDS011;3613;48.902;9.204;2022-12-18T17:19:31;43.92;;;20.73;;
7142;SDS011;3613;48.902;9.204;2022-12-18T17:21:57;43.03;;;20.10;;
7142;SDS011;3613;48.902;9.204;2022-12-18T17:24:28;45.38;;;19.02;;
7142;SDS011;3613;48.902;9.204;2022-12-18T17:26:56;41.28;;;20.08;;
7142;SDS011;3613;48.902;9.204;2022-12-18T17:29:21;47.03;;;20.20;;
7142;SDS011;3613;48.902;9.204;2022-12-18T17:31:49;41.55;;;20.63;;
7142;SDS011;3613;48.902;9.204;2022-12-18T17:34:15;43.33;;;19.33;;
7142;SDS011;3613;48.902;9.204;2022-12-18T17:36:41;45.83;;;21.00;;